createdAt,value
2018-11-03T00:00:36.590Z,91.42
2018-11-03T00:01:36.584Z,91.63
2018-11-03T00:02:36.543Z,92.14
2018-11-03T00:03:36.538Z,92.14
2018-11-03T00:04:36.493Z,92.55
2018-11-03T00:05:36.495Z,92.25
2018-11-03T00:06:36.593Z,92.46
2018-11-03T00:07:36.474Z,92.35
2018-11-03T00:08:36.462Z,92.66
2018-11-03T00:09:36.452Z,92.25
2018-11-03T00:10:36.440Z,92.35
2018-11-03T00:11:36.447Z,92.51
2018-11-03T00:12:36.449Z,92.46
2018-11-03T00:13:36.402Z,92.46
2018-11-03T00:14:36.396Z,92.66
2018-11-03T00:15:36.406Z,92.61
2018-11-03T00:16:36.402Z,92.21
2018-11-03T00:17:36.357Z,92.41
2018-11-03T00:18:36.346Z,92.31
2018-11-03T00:19:36.379Z,92.14
2018-11-03T00:20:36.347Z,91.89
2018-11-03T00:21:37.135Z,91.83
2018-11-03T00:22:36.302Z,92.10
2018-11-03T00:23:36.319Z,91.89
2018-11-03T00:24:36.279Z,92.10
2018-11-03T00:25:36.293Z,92.41
2018-11-03T00:26:36.255Z,92.00
2018-11-03T00:27:36.301Z,91.42
2018-11-03T00:28:36.263Z,91.69
2018-11-03T00:29:36.234Z,91.79
2018-11-03T00:30:36.280Z,91.38
2018-11-03T00:31:36.198Z,91.69
2018-11-03T00:32:36.216Z,91.58
2018-11-03T00:33:36.216Z,91.38
2018-11-03T00:34:36.160Z,91.69
2018-11-03T00:35:36.221Z,91.38
2018-11-03T00:36:36.136Z,92.00
2018-11-03T00:37:36.160Z,91.89
2018-11-03T00:38:36.123Z,91.58
2018-11-03T00:39:36.110Z,91.07
2018-11-03T00:40:36.151Z,91.48
2018-11-03T00:41:36.124Z,91.89
2018-11-03T00:42:36.134Z,91.28
2018-11-03T00:43:36.107Z,91.24
2018-11-03T00:44:36.096Z,91.34
2018-11-03T00:45:36.075Z,91.85
2018-11-03T00:46:36.031Z,91.69
2018-11-03T00:47:36.049Z,91.79
2018-11-03T00:48:36.035Z,91.79
2018-11-03T00:49:36.016Z,92.10
2018-11-03T00:50:35.976Z,91.75
2018-11-03T00:51:35.994Z,91.79
2018-11-03T00:52:35.975Z,91.38
2018-11-03T00:53:35.984Z,91.38
2018-11-03T00:54:35.944Z,91.17
2018-11-03T00:55:35.925Z,91.69
2018-11-03T00:56:35.908Z,91.17
2018-11-03T00:57:35.969Z,91.34
2018-11-03T00:58:35.896Z,91.69
2018-11-03T00:59:35.885Z,91.48
2018-11-03T01:00:35.880Z,91.69
2018-11-03T01:01:35.858Z,91.69
2018-11-03T01:02:35.889Z,91.69
2018-11-03T01:03:35.909Z,91.69
2018-11-03T01:04:35.822Z,91.58
2018-11-03T01:05:35.825Z,91.69
2018-11-03T01:06:35.816Z,91.38
2018-11-03T01:07:35.821Z,91.69
2018-11-03T01:08:35.794Z,91.69
2018-11-03T01:09:35.814Z,92.00
2018-11-03T01:10:35.823Z,91.58
2018-11-03T01:11:35.750Z,91.69
2018-11-03T01:12:35.738Z,91.89
2018-11-03T01:13:35.771Z,90.86
2018-11-03T01:14:35.733Z,91.17
2018-11-03T01:15:35.721Z,91.28
2018-11-03T01:16:35.699Z,91.17
2018-11-03T01:17:35.683Z,91.42
2018-11-03T01:18:35.690Z,91.48
2018-11-03T01:19:35.657Z,91.22
2018-11-03T01:20:35.659Z,91.17
2018-11-03T01:21:35.645Z,91.52
2018-11-03T01:22:35.622Z,91.32
2018-11-03T01:23:35.701Z,91.42
2018-11-03T01:24:35.672Z,90.45
2018-11-03T01:25:35.599Z,90.45
2018-11-03T01:26:35.590Z,90.66
2018-11-03T01:27:35.584Z,90.86
2018-11-03T01:28:35.607Z,90.25
2018-11-03T01:29:35.565Z,90.25
2018-11-03T01:30:35.524Z,90.14
2018-11-03T01:31:35.573Z,89.94
2018-11-03T01:32:35.619Z,90.97
2018-11-03T01:33:35.506Z,90.76
2018-11-03T01:34:35.481Z,90.14
2018-11-03T01:35:35.481Z,90.76
2018-11-03T01:36:35.491Z,90.76
2018-11-03T01:37:35.499Z,90.61
2018-11-03T01:38:35.434Z,90.82
2018-11-03T01:39:35.429Z,90.76
2018-11-03T01:40:35.434Z,89.79
2018-11-03T01:41:35.408Z,89.83
2018-11-03T01:42:35.433Z,90.14
2018-11-03T01:43:35.384Z,90.04
2018-11-03T01:44:35.380Z,89.32
2018-11-03T01:45:35.380Z,89.73
2018-11-03T01:46:35.352Z,89.32
2018-11-03T01:47:35.422Z,89.22
2018-11-03T01:48:35.328Z,88.76
2018-11-03T01:49:35.315Z,88.86
2018-11-03T01:50:35.303Z,88.76
2018-11-03T01:51:35.305Z,89.32
2018-11-03T01:52:35.300Z,89.28
2018-11-03T01:53:35.257Z,88.70
2018-11-03T01:54:35.252Z,88.96
2018-11-03T01:55:35.266Z,88.76
2018-11-03T01:56:35.243Z,88.24
2018-11-03T01:57:35.232Z,88.96
2018-11-03T01:58:35.211Z,88.65
2018-11-03T01:59:35.197Z,88.49
2018-11-03T02:00:35.211Z,88.76
2018-11-03T02:01:35.179Z,88.65
2018-11-03T02:02:35.218Z,88.65
2018-11-03T02:03:35.149Z,88.76
2018-11-03T02:04:35.156Z,88.76
2018-11-03T02:05:35.177Z,88.96
2018-11-03T02:06:35.121Z,88.86
2018-11-03T02:07:35.138Z,88.56
2018-11-03T02:08:35.092Z,89.17
2018-11-03T02:09:35.088Z,88.90
2018-11-03T02:10:35.071Z,89.69
2018-11-03T02:11:35.091Z,89.79
2018-11-03T02:12:35.080Z,89.79
2018-11-03T02:13:35.140Z,89.94
2018-11-03T02:14:35.022Z,89.69
2018-11-03T02:15:35.016Z,89.89
2018-11-03T02:16:35.000Z,89.11
2018-11-03T02:17:35.043Z,88.76
2018-11-03T02:18:35.018Z,89.07
2018-11-03T02:19:34.970Z,89.38
2018-11-03T02:20:34.998Z,89.07
2018-11-03T02:21:34.953Z,89.17
2018-11-03T02:22:34.973Z,89.07
2018-11-03T02:23:34.927Z,89.17
2018-11-03T02:24:34.936Z,89.89
2018-11-03T02:25:34.960Z,90.00
2018-11-03T02:26:34.888Z,89.89
2018-11-03T02:27:34.905Z,89.17
2018-11-03T02:28:34.874Z,89.48
2018-11-03T02:29:34.856Z,89.58
2018-11-03T02:30:34.871Z,89.58
2018-11-03T02:31:34.878Z,89.62
2018-11-03T02:32:34.822Z,90.20
2018-11-03T02:33:34.837Z,89.89
2018-11-03T02:34:34.840Z,90.00
2018-11-03T02:35:34.798Z,89.89
2018-11-03T02:36:34.805Z,89.69
2018-11-03T02:37:34.773Z,89.73
2018-11-03T02:38:34.788Z,89.69
2018-11-03T02:39:34.742Z,89.58
2018-11-03T02:40:34.724Z,89.62
2018-11-03T02:41:34.754Z,89.62
2018-11-03T02:42:34.736Z,89.73
2018-11-03T02:43:34.690Z,89.94
2018-11-03T02:44:34.681Z,90.35
2018-11-03T02:45:34.702Z,90.10
2018-11-03T02:46:34.652Z,90.14
2018-11-03T02:47:34.684Z,90.00
2018-11-03T02:48:34.640Z,89.83
2018-11-03T02:49:34.631Z,89.79
2018-11-03T02:50:34.612Z,89.89
2018-11-03T02:51:34.634Z,89.89
2018-11-03T02:52:34.604Z,89.48
2018-11-03T02:53:34.605Z,89.89
2018-11-03T02:54:34.570Z,90.04
2018-11-03T02:55:34.553Z,90.20
2018-11-03T02:56:34.544Z,89.58
2018-11-03T02:57:34.613Z,89.58
2018-11-03T02:58:34.534Z,89.58
2018-11-03T02:59:34.545Z,89.48
2018-11-03T03:00:34.506Z,89.89
2018-11-03T03:01:34.482Z,89.69
2018-11-03T03:02:34.481Z,89.38
2018-11-03T03:03:34.495Z,90.10
2018-11-03T03:04:34.488Z,90.10
2018-11-03T03:05:34.480Z,90.10
2018-11-03T03:06:34.425Z,89.89
2018-11-03T03:07:34.428Z,90.10
2018-11-03T03:08:34.402Z,90.00
2018-11-03T03:09:34.399Z,90.20
2018-11-03T03:10:34.422Z,90.20
2018-11-03T03:11:34.380Z,89.38
2018-11-03T03:12:34.387Z,89.62
2018-11-03T03:13:34.346Z,90.10
2018-11-03T03:14:34.337Z,90.20
2018-11-03T03:15:34.356Z,89.58
2018-11-03T03:16:34.316Z,90.00
2018-11-03T03:17:34.357Z,89.28
2018-11-03T03:18:34.292Z,89.38
2018-11-03T03:19:34.281Z,89.38
2018-11-03T03:20:34.263Z,89.69
2018-11-03T03:21:34.264Z,89.58
2018-11-03T03:22:34.270Z,89.58
2018-11-03T03:23:34.236Z,90.00
2018-11-03T03:24:34.271Z,90.20
2018-11-03T03:25:34.270Z,90.04
2018-11-03T03:26:34.202Z,90.10
2018-11-03T03:27:34.203Z,90.04
2018-11-03T03:28:34.176Z,90.20
2018-11-03T03:29:34.232Z,90.51
2018-11-03T03:30:34.175Z,90.76
2018-11-03T03:31:34.139Z,90.76
2018-11-03T03:32:34.149Z,90.55
2018-11-03T03:33:34.133Z,90.72
2018-11-03T03:34:34.144Z,90.51
2018-11-03T03:35:34.108Z,90.66
2018-11-03T03:36:34.080Z,90.55
2018-11-03T03:37:34.100Z,90.86
2018-11-03T03:38:34.065Z,90.86
2018-11-03T03:39:34.077Z,90.55
2018-11-03T03:40:34.077Z,90.35
2018-11-03T03:41:34.029Z,90.45
2018-11-03T03:42:34.029Z,90.66
2018-11-03T03:43:34.057Z,90.66
2018-11-03T03:44:34.020Z,90.55
2018-11-03T03:45:33.986Z,90.66
2018-11-03T03:46:33.969Z,90.55
2018-11-03T03:47:33.962Z,90.66
2018-11-03T03:48:33.979Z,90.55
2018-11-03T03:49:33.993Z,90.86
2018-11-03T03:50:33.946Z,90.86
2018-11-03T03:51:33.917Z,90.76
2018-11-03T03:52:33.902Z,90.76
2018-11-03T03:53:33.909Z,90.61
2018-11-03T03:54:33.885Z,90.55
2018-11-03T03:55:33.926Z,90.41
2018-11-03T03:56:33.860Z,90.51
2018-11-03T03:57:33.896Z,90.61
2018-11-03T03:58:33.837Z,90.66
2018-11-03T03:59:33.838Z,90.76
2018-11-03T04:00:33.825Z,90.97
2018-11-03T04:01:33.798Z,90.76
2018-11-03T04:02:33.826Z,91.38
2018-11-03T04:03:33.784Z,91.13
2018-11-03T04:04:33.769Z,91.17
2018-11-03T04:05:33.805Z,91.64
2018-11-03T04:06:33.797Z,91.58
2018-11-03T04:07:33.739Z,91.38
2018-11-03T04:08:33.733Z,91.28
2018-11-03T04:09:33.741Z,91.28
2018-11-03T04:10:33.701Z,91.48
2018-11-03T04:11:33.704Z,91.38
2018-11-03T04:12:33.692Z,91.28
2018-11-03T04:13:33.696Z,91.07
2018-11-03T04:14:33.682Z,91.13
2018-11-03T04:15:33.675Z,91.07
2018-11-03T04:16:33.640Z,91.48
2018-11-03T04:17:33.648Z,91.34
2018-11-03T04:18:33.643Z,91.28
2018-11-03T04:19:33.599Z,91.38
2018-11-03T04:20:33.592Z,91.28
2018-11-03T04:21:33.635Z,91.17
2018-11-03T04:22:33.645Z,91.38
2018-11-03T04:23:33.584Z,91.17
2018-11-03T04:24:33.536Z,91.38
2018-11-03T04:25:33.529Z,91.28
2018-11-03T04:26:33.519Z,91.38
2018-11-03T04:27:33.503Z,91.17
2018-11-03T04:28:33.559Z,90.97
2018-11-03T04:29:33.507Z,91.28
2018-11-03T04:30:33.480Z,91.17
2018-11-03T04:31:33.465Z,91.28
2018-11-03T04:32:33.454Z,91.28
2018-11-03T04:33:33.458Z,91.17
2018-11-03T04:34:33.439Z,91.48
2018-11-03T04:35:33.414Z,91.07
2018-11-03T04:36:33.409Z,91.17
2018-11-03T04:37:33.413Z,91.69
2018-11-03T04:38:33.404Z,91.69
2018-11-03T04:39:33.365Z,91.58
2018-11-03T04:40:33.370Z,91.48
2018-11-03T04:41:33.343Z,91.69
2018-11-03T04:42:33.337Z,91.69
2018-11-03T04:43:33.347Z,91.89
2018-11-03T04:44:33.311Z,91.17
2018-11-03T04:45:33.323Z,91.17
2018-11-03T04:46:33.305Z,91.54
2018-11-03T04:47:33.282Z,91.38
2018-11-03T04:48:33.307Z,91.48
2018-11-03T04:49:33.260Z,91.07
2018-11-03T04:50:33.240Z,91.17
2018-11-03T04:51:33.237Z,91.38
2018-11-03T04:52:33.220Z,91.69
2018-11-03T04:53:33.263Z,91.48
2018-11-03T04:54:33.203Z,92.41
2018-11-03T04:55:33.219Z,92.31
2018-11-03T04:56:33.175Z,92.21
2018-11-03T04:57:33.189Z,92.51
2018-11-03T04:58:33.183Z,92.46
2018-11-03T04:59:33.160Z,92.31
2018-11-03T05:00:33.153Z,92.41
2018-11-03T05:01:33.141Z,92.51
2018-11-03T05:02:33.114Z,92.72
2018-11-03T05:03:33.101Z,92.35
2018-11-03T05:04:33.082Z,92.86
2018-11-03T05:05:33.092Z,92.82
2018-11-03T05:06:33.084Z,93.07
2018-11-03T05:07:33.054Z,92.76
2018-11-03T05:08:33.034Z,92.72
2018-11-03T05:09:33.054Z,92.61
2018-11-03T05:10:33.039Z,92.61
2018-11-03T05:11:33.076Z,92.72
2018-11-03T05:12:33.035Z,92.55
2018-11-03T05:13:32.989Z,92.14
2018-11-03T05:14:33.005Z,92.51
2018-11-03T05:15:32.959Z,92.51
2018-11-03T05:16:33.588Z,92.51
2018-11-03T05:17:32.966Z,92.55
2018-11-03T05:18:32.920Z,92.82
2018-11-03T05:19:32.919Z,92.51
2018-11-03T05:20:32.908Z,92.41
2018-11-03T05:21:32.923Z,92.41
2018-11-03T05:22:32.933Z,92.10
2018-11-03T05:23:32.899Z,92.10
2018-11-03T05:24:32.882Z,92.10
2018-11-03T05:25:32.843Z,92.31
2018-11-03T05:26:32.836Z,92.25
2018-11-03T05:27:32.817Z,92.10
2018-11-03T05:28:32.866Z,92.31
2018-11-03T05:29:32.809Z,92.41
2018-11-03T05:30:32.804Z,92.10
2018-11-03T05:31:32.774Z,92.10
2018-11-03T05:32:32.790Z,92.21
2018-11-03T05:33:32.763Z,91.79
2018-11-03T05:34:32.798Z,91.89
2018-11-03T05:35:32.741Z,91.89
2018-11-03T05:36:32.731Z,91.79
2018-11-03T05:37:32.707Z,92.10
2018-11-03T05:38:32.759Z,92.10
2018-11-03T05:39:32.742Z,92.21
2018-11-03T05:40:32.695Z,92.82
2018-11-03T05:41:32.685Z,92.51
2018-11-03T05:42:32.683Z,92.35
2018-11-03T05:43:32.646Z,92.72
2018-11-03T05:44:32.655Z,92.51
2018-11-03T05:45:32.613Z,92.61
2018-11-03T05:46:32.682Z,92.86
2018-11-03T05:47:32.594Z,92.72
2018-11-03T05:48:32.650Z,92.61
2018-11-03T05:49:32.579Z,92.72
2018-11-03T05:50:32.567Z,92.66
2018-11-03T05:51:32.572Z,92.51
2018-11-03T05:52:32.577Z,92.86
2018-11-03T05:53:32.546Z,92.25
2018-11-03T05:54:32.522Z,92.55
2018-11-03T05:55:32.506Z,92.97
2018-11-03T05:56:32.509Z,92.55
2018-11-03T05:57:32.541Z,92.66
2018-11-03T05:58:32.492Z,92.86
2018-11-03T05:59:32.461Z,93.59
2018-11-03T06:00:32.483Z,93.38
2018-11-03T06:01:32.436Z,93.28
2018-11-03T06:02:32.444Z,93.28
2018-11-03T06:03:32.413Z,93.28
2018-11-03T06:04:32.462Z,93.38
2018-11-03T06:05:32.390Z,93.18
2018-11-03T06:06:32.385Z,93.49
2018-11-03T06:07:32.372Z,93.49
2018-11-03T06:08:32.394Z,93.59
2018-11-03T06:09:32.370Z,93.07
2018-11-03T06:10:32.344Z,93.28
2018-11-03T06:11:32.321Z,92.97
2018-11-03T06:12:33.166Z,93.07
2018-11-03T06:13:32.315Z,93.38
2018-11-03T06:14:32.333Z,93.28
2018-11-03T06:15:32.379Z,93.18
2018-11-03T06:16:32.256Z,93.38
2018-11-03T06:17:32.258Z,93.07
2018-11-03T06:18:32.240Z,93.18
2018-11-03T06:19:32.266Z,93.18
2018-11-03T06:20:32.255Z,93.28
2018-11-03T06:21:32.233Z,92.97
2018-11-03T06:22:32.309Z,93.18
2018-11-03T06:23:32.213Z,92.86
2018-11-03T06:24:32.235Z,93.38
2018-11-03T06:25:32.163Z,93.49
2018-11-03T06:26:32.184Z,93.59
2018-11-03T06:27:32.200Z,93.18
2018-11-03T06:28:32.171Z,93.28
2018-11-03T06:29:32.135Z,93.28
2018-11-03T06:30:32.167Z,93.49
2018-11-03T06:31:32.110Z,93.90
2018-11-03T06:32:32.083Z,93.28
2018-11-03T06:33:32.108Z,93.79
2018-11-03T06:34:32.062Z,93.49
2018-11-03T06:35:32.053Z,93.18
2018-11-03T06:36:32.059Z,93.38
2018-11-03T06:37:32.032Z,93.07
2018-11-03T06:38:32.057Z,93.28
2018-11-03T06:39:32.000Z,93.18
2018-11-03T06:40:31.991Z,93.07
2018-11-03T06:41:32.064Z,93.38
2018-11-03T06:42:31.982Z,93.28
2018-11-03T06:43:32.008Z,93.28
2018-11-03T06:44:31.962Z,93.18
2018-11-03T06:45:31.940Z,93.49
2018-11-03T06:46:31.944Z,93.69
2018-11-03T06:47:31.988Z,93.69
2018-11-03T06:48:31.944Z,93.69
2018-11-03T06:49:31.922Z,93.49
2018-11-03T06:50:31.899Z,93.49
2018-11-03T06:51:31.873Z,93.38
2018-11-03T06:52:31.864Z,93.59
2018-11-03T06:53:31.868Z,93.07
2018-11-03T06:54:31.837Z,93.59
2018-11-03T06:55:31.823Z,93.49
2018-11-03T06:56:31.845Z,93.49
2018-11-03T06:57:31.798Z,93.69
2018-11-03T06:58:31.829Z,94.31
2018-11-03T06:59:31.890Z,94.00
2018-11-03T07:00:31.777Z,94.00
2018-11-03T07:01:31.758Z,94.21
2018-11-03T07:02:31.747Z,94.10
2018-11-03T07:03:31.765Z,94.10
2018-11-03T07:04:31.733Z,94.10
2018-11-03T07:05:31.725Z,94.10
2018-11-03T07:06:31.736Z,94.10
2018-11-03T07:07:31.721Z,94.42
2018-11-03T07:08:31.669Z,94.10
2018-11-03T07:09:31.669Z,94.37
2018-11-03T07:10:31.656Z,94.72
2018-11-03T07:11:31.744Z,94.31
2018-11-03T07:12:31.823Z,94.47
2018-11-03T07:13:31.637Z,94.57
2018-11-03T07:14:31.645Z,94.68
2018-11-03T07:15:31.596Z,94.52
2018-11-03T07:16:31.638Z,94.06
2018-11-03T07:17:31.560Z,94.06
2018-11-03T07:18:31.610Z,94.06
2018-11-03T07:19:31.607Z,94.06
2018-11-03T07:20:31.568Z,94.37
2018-11-03T07:21:31.569Z,94.37
2018-11-03T07:22:31.507Z,94.06
2018-11-03T07:23:31.559Z,94.27
2018-11-03T07:24:31.523Z,94.17
2018-11-03T07:25:31.483Z,93.85
2018-11-03T07:26:31.498Z,94.06
2018-11-03T07:27:31.463Z,94.06
2018-11-03T07:28:31.484Z,94.06
2018-11-03T07:29:31.489Z,94.06
2018-11-03T07:30:31.424Z,93.65
2018-11-03T07:31:31.412Z,93.44
2018-11-03T07:32:31.455Z,93.44
2018-11-03T07:33:31.469Z,93.65
2018-11-03T07:34:31.392Z,93.96
2018-11-03T07:35:31.357Z,93.96
2018-11-03T07:36:31.390Z,94.78
2018-11-03T07:37:31.335Z,94.68
2018-11-03T07:38:31.329Z,94.53
2018-11-03T07:39:31.371Z,93.85
2018-11-03T07:40:31.330Z,94.27
2018-11-03T07:41:31.383Z,94.06
2018-11-03T07:42:31.353Z,94.06
2018-11-03T07:43:31.310Z,93.85
2018-11-03T07:44:31.261Z,93.81
2018-11-03T07:45:31.246Z,94.23
2018-11-03T07:46:31.319Z,94.27
2018-11-03T07:47:31.229Z,93.50
2018-11-03T07:48:31.290Z,93.50
2018-11-03T07:49:31.388Z,93.09
2018-11-03T07:50:31.192Z,93.71
2018-11-03T07:51:31.264Z,94.32
2018-11-03T07:52:31.174Z,94.08
2018-11-03T07:53:31.182Z,94.28
2018-11-03T07:54:31.209Z,94.28
2018-11-03T07:55:31.146Z,93.98
2018-11-03T07:56:31.169Z,93.56
2018-11-03T07:57:31.124Z,92.63
2018-11-03T07:58:31.129Z,92.94
2018-11-03T07:59:31.108Z,92.74
2018-11-03T08:00:31.170Z,92.74
2018-11-03T08:01:31.112Z,92.63
2018-11-03T08:02:31.054Z,92.22
2018-11-03T08:03:31.060Z,91.60
2018-11-03T08:04:31.041Z,91.50
2018-11-03T08:05:31.058Z,91.60
2018-11-03T08:06:31.049Z,91.71
2018-11-03T08:07:31.034Z,92.22
2018-11-03T08:08:30.983Z,92.12
2018-11-03T08:09:30.987Z,92.33
2018-11-03T08:10:30.963Z,92.02
2018-11-03T08:11:30.961Z,92.12
2018-11-03T08:12:30.986Z,91.91
2018-11-03T08:13:30.925Z,91.71
2018-11-03T08:14:30.965Z,91.81
2018-11-03T08:15:30.912Z,91.81
2018-11-03T08:16:30.897Z,92.43
2018-11-03T08:17:30.916Z,92.43
2018-11-03T08:18:30.885Z,92.22
2018-11-03T08:19:30.881Z,92.22
2018-11-03T08:20:30.870Z,91.81
2018-11-03T08:21:30.828Z,92.02
2018-11-03T08:22:30.873Z,92.33
2018-11-03T08:23:30.809Z,91.97
2018-11-03T08:24:30.856Z,91.05
2018-11-03T08:25:30.795Z,91.77
2018-11-03T08:26:30.780Z,91.05
2018-11-03T08:27:30.825Z,91.05
2018-11-03T08:28:30.765Z,91.50
2018-11-03T08:29:30.756Z,91.81
2018-11-03T08:30:30.730Z,91.19
2018-11-03T08:31:30.797Z,91.15
2018-11-03T08:32:30.756Z,91.25
2018-11-03T08:33:30.710Z,91.56
2018-11-03T08:34:30.679Z,91.15
2018-11-03T08:35:30.682Z,90.73
2018-11-03T08:36:30.685Z,91.25
2018-11-03T08:37:30.667Z,91.25
2018-11-03T08:38:30.641Z,91.66
2018-11-03T08:39:30.666Z,91.25
2018-11-03T08:40:30.617Z,91.56
2018-11-03T08:41:30.662Z,91.56
2018-11-03T08:42:30.593Z,91.46
2018-11-03T08:43:45.200Z,91.87
2018-11-03T08:44:30.615Z,92.34
2018-11-03T08:45:30.567Z,91.93
2018-11-03T08:46:30.568Z,91.21
2018-11-03T08:47:30.537Z,91.21
2018-11-03T08:48:30.619Z,91.11
2018-11-03T08:49:30.523Z,91.21
2018-11-03T08:50:30.503Z,90.75
2018-11-03T08:51:30.496Z,90.69
2018-11-03T08:52:30.495Z,89.83
2018-11-03T08:53:30.505Z,90.55
2018-11-03T08:54:30.464Z,90.45
2018-11-03T08:55:30.483Z,90.55
2018-11-03T08:56:33.141Z,90.66
2018-11-03T08:57:30.477Z,90.66
2018-11-03T08:58:30.436Z,90.20
2018-11-03T08:59:30.495Z,89.94
2018-11-03T09:00:30.414Z,90.51
2018-11-03T09:01:30.381Z,90.24
2018-11-03T09:02:30.407Z,89.58
2018-11-03T09:03:30.368Z,88.45
2018-11-03T09:04:30.348Z,89.48
2018-11-03T09:05:30.340Z,89.73
2018-11-03T09:06:30.369Z,89.58
2018-11-03T09:07:30.346Z,89.17
2018-11-03T09:08:30.302Z,89.79
2018-11-03T09:09:30.319Z,89.58
2018-11-03T09:10:30.281Z,89.48
2018-11-03T09:11:30.272Z,89.44
2018-11-03T09:12:30.368Z,89.64
2018-11-03T09:13:30.241Z,88.72
2018-11-03T09:14:30.300Z,88.10
2018-11-03T09:15:30.224Z,88.51
2018-11-03T09:16:30.212Z,88.56
2018-11-03T09:17:30.227Z,88.45
2018-11-03T09:18:30.186Z,88.86
2018-11-03T09:19:30.217Z,89.58
2018-11-03T09:20:30.180Z,88.96
2018-11-03T09:21:30.162Z,89.48
2018-11-03T09:22:30.245Z,89.48
2018-11-03T09:23:30.134Z,89.48
2018-11-03T09:24:30.141Z,88.56
2018-11-03T09:25:30.141Z,88.45
2018-11-03T09:26:30.096Z,88.86
2018-11-03T09:27:30.085Z,89.44
2018-11-03T09:28:30.077Z,88.82
2018-11-03T09:29:30.092Z,88.92
2018-11-03T09:30:30.054Z,88.51
2018-11-03T09:31:30.048Z,89.44
2018-11-03T09:32:30.057Z,89.54
2018-11-03T09:33:30.018Z,88.92
2018-11-03T09:34:30.063Z,89.64
2018-11-03T09:35:29.990Z,88.47
2018-11-03T09:36:30.021Z,87.85
2018-11-03T09:37:29.996Z,88.06
2018-11-03T09:38:30.087Z,88.78
2018-11-03T09:39:29.941Z,88.84
2018-11-03T09:40:29.928Z,88.23
2018-11-03T09:41:29.915Z,87.82
2018-11-03T09:42:29.970Z,86.27
2018-11-03T09:43:30.043Z,86.89
2018-11-03T09:44:29.886Z,86.85
2018-11-03T09:45:29.873Z,86.54
2018-11-03T09:46:29.872Z,86.75
2018-11-03T09:47:29.874Z,86.85
2018-11-03T09:48:29.844Z,87.26
2018-11-03T09:49:29.824Z,87.37
2018-11-03T09:50:33.261Z,87.43
2018-11-03T09:51:29.834Z,86.19
2018-11-03T09:52:29.806Z,85.17
2018-11-03T09:53:29.783Z,85.17
2018-11-03T09:54:30.594Z,85.27
2018-11-03T09:55:29.809Z,86.05
2018-11-03T09:56:29.773Z,86.25
2018-11-03T09:57:29.790Z,85.74
2018-11-03T09:58:29.737Z,84.61
2018-11-03T09:59:29.738Z,85.33
2018-11-03T10:00:29.755Z,84.31
2018-11-03T10:01:29.690Z,84.31
2018-11-03T10:02:29.675Z,83.90
2018-11-03T10:03:29.669Z,84.00
2018-11-03T10:04:29.673Z,84.31
2018-11-03T10:05:29.737Z,84.25
2018-11-03T10:06:29.652Z,83.94
2018-11-03T10:07:29.652Z,84.55
2018-11-03T10:08:29.627Z,85.54
2018-11-03T10:09:29.642Z,84.34
2018-11-03T10:10:29.601Z,84.76
2018-11-03T10:11:29.584Z,85.68
2018-11-03T10:12:29.593Z,85.06
2018-11-03T10:13:29.562Z,85.17
2018-11-03T10:14:29.574Z,85.47
2018-11-03T10:15:29.587Z,84.41
2018-11-03T10:16:30.103Z,85.23
2018-11-03T10:17:29.515Z,84.20
2018-11-03T10:18:29.519Z,84.00
2018-11-03T10:19:29.520Z,84.10
2018-11-03T10:20:29.515Z,84.86
2018-11-03T10:21:29.470Z,85.17
2018-11-03T10:22:29.554Z,84.76
2018-11-03T10:23:29.452Z,84.76
2018-11-03T10:24:29.491Z,85.58
2018-11-03T10:25:29.427Z,85.27
2018-11-03T10:26:29.436Z,85.11
2018-11-03T10:27:29.409Z,85.52
2018-11-03T10:28:29.427Z,85.06
2018-11-03T10:29:30.095Z,85.41
2018-11-03T10:30:29.399Z,85.41
2018-11-03T10:31:29.359Z,85.41
2018-11-03T10:32:29.377Z,85.21
2018-11-03T10:33:29.349Z,84.90
2018-11-03T10:34:29.327Z,85.52
2018-11-03T10:35:29.306Z,85.72
2018-11-03T10:36:29.372Z,85.89
2018-11-03T10:37:29.329Z,85.11
2018-11-03T10:38:29.366Z,85.38
2018-11-03T10:39:29.304Z,85.17
2018-11-03T10:40:30.103Z,85.27
2018-11-03T10:41:29.241Z,85.41
2018-11-03T10:42:29.303Z,85.11
2018-11-03T10:43:29.222Z,85.21
2018-11-03T10:44:29.213Z,84.90
2018-11-03T10:45:29.208Z,85.82
2018-11-03T10:46:29.339Z,85.93
2018-11-03T10:47:29.206Z,86.03
2018-11-03T10:48:29.198Z,85.89
2018-11-03T10:49:29.203Z,85.38
2018-11-03T10:50:29.142Z,85.06
2018-11-03T10:51:29.135Z,85.17
2018-11-03T10:52:29.125Z,85.17
2018-11-03T10:53:29.143Z,85.06
2018-11-03T10:54:29.098Z,85.13
2018-11-03T10:55:29.091Z,84.76
2018-11-03T10:56:29.070Z,85.13
2018-11-03T10:57:29.064Z,84.92
2018-11-03T10:58:29.115Z,85.03
2018-11-03T10:59:29.083Z,85.27
2018-11-03T11:00:29.039Z,85.33
2018-11-03T11:01:29.032Z,84.04
2018-11-03T11:02:29.011Z,84.45
2018-11-03T11:03:29.039Z,84.96
2018-11-03T11:04:29.021Z,84.76
2018-11-03T11:05:29.011Z,85.47
2018-11-03T11:06:28.965Z,84.14
2018-11-03T11:07:28.949Z,85.06
2018-11-03T11:08:28.934Z,85.33
2018-11-03T11:09:28.953Z,84.34
2018-11-03T11:10:28.929Z,84.34
2018-11-03T11:11:28.914Z,84.41
2018-11-03T11:12:28.912Z,85.54
2018-11-03T11:13:28.883Z,84.72
2018-11-03T11:14:29.003Z,84.31
2018-11-03T11:15:28.862Z,83.90
2018-11-03T11:16:28.948Z,84.20
2018-11-03T11:17:28.852Z,84.72
2018-11-03T11:18:31.649Z,84.10
2018-11-03T11:19:28.865Z,83.65
2018-11-03T11:20:28.843Z,84.41
2018-11-03T11:21:28.833Z,84.41
2018-11-03T11:22:28.786Z,84.00
2018-11-03T11:23:28.817Z,83.90
2018-11-03T11:24:28.814Z,83.96
2018-11-03T11:25:28.938Z,83.39
2018-11-03T11:26:28.734Z,83.90
2018-11-03T11:27:28.744Z,84.10
2018-11-03T11:28:28.742Z,84.20
2018-11-03T11:29:28.736Z,83.96
2018-11-03T11:30:28.692Z,84.47
2018-11-03T11:31:28.823Z,85.19
2018-11-03T11:32:28.723Z,84.23
2018-11-03T11:33:28.698Z,83.31
2018-11-03T11:34:28.665Z,84.03
2018-11-03T11:35:28.680Z,83.41
2018-11-03T11:36:28.633Z,81.26
2018-11-03T11:37:28.728Z,81.57
2018-11-03T11:38:28.663Z,82.69
2018-11-03T11:39:28.582Z,81.26
2018-11-03T11:40:28.647Z,80.85
2018-11-03T11:41:28.583Z,81.57
2018-11-03T11:42:28.595Z,80.85
2018-11-03T11:43:28.552Z,81.29
2018-11-03T11:44:28.538Z,82.83
2018-11-03T11:45:28.565Z,81.50
2018-11-03T11:46:28.524Z,82.63
2018-11-03T11:47:28.524Z,82.32
2018-11-03T11:48:28.642Z,82.93
2018-11-03T11:49:28.486Z,81.71
2018-11-03T11:50:28.517Z,82.22
2018-11-03T11:51:28.476Z,82.42
2018-11-03T11:52:28.455Z,82.63
2018-11-03T11:53:28.470Z,82.73
2018-11-03T11:54:28.457Z,83.49
2018-11-03T11:55:28.440Z,83.45
2018-11-03T11:56:28.469Z,82.73
2018-11-03T11:57:28.397Z,83.59
2018-11-03T11:58:28.406Z,84.00
2018-11-03T11:59:28.366Z,84.17
2018-11-03T12:00:28.436Z,83.59
2018-11-03T12:01:28.346Z,83.49
2018-11-03T12:02:28.450Z,82.87
2018-11-03T12:03:28.334Z,83.25
2018-11-03T12:04:28.361Z,83.18
2018-11-03T12:05:28.331Z,82.87
2018-11-03T12:06:28.309Z,83.69
2018-11-03T12:07:28.279Z,82.93
2018-11-03T12:08:28.267Z,83.39
2018-11-03T12:09:28.273Z,83.45
2018-11-03T12:10:28.315Z,84.17
2018-11-03T12:11:28.231Z,83.55
2018-11-03T12:12:28.241Z,84.27
2018-11-03T12:13:28.214Z,84.06
2018-11-03T12:14:28.233Z,84.37
2018-11-03T12:15:28.210Z,83.34
2018-11-03T12:16:28.181Z,83.55
2018-11-03T12:17:28.181Z,84.06
2018-11-03T12:18:28.152Z,84.37
2018-11-03T12:19:28.148Z,83.96
2018-11-03T12:20:28.188Z,82.83
2018-11-03T12:21:28.140Z,83.86
2018-11-03T12:22:28.112Z,84.06
2018-11-03T12:23:28.109Z,83.86
2018-11-03T12:24:28.097Z,84.58
2018-11-03T12:25:28.161Z,84.17
2018-11-03T12:26:28.103Z,83.96
2018-11-03T12:27:28.057Z,83.34
2018-11-03T12:28:28.071Z,84.37
2018-11-03T12:29:28.047Z,84.68
2018-11-03T12:30:28.083Z,84.47
2018-11-03T12:31:28.077Z,84.47
2018-11-03T12:32:28.054Z,84.27
2018-11-03T12:33:28.009Z,84.03
2018-11-03T12:34:27.988Z,84.47
2018-11-03T12:35:28.029Z,84.12
2018-11-03T12:36:28.005Z,84.23
2018-11-03T12:37:27.966Z,84.58
2018-11-03T12:38:27.955Z,83.65
2018-11-03T12:39:27.935Z,84.27
2018-11-03T12:40:27.915Z,84.17
2018-11-03T12:41:28.131Z,84.47
2018-11-03T12:42:27.890Z,85.09
2018-11-03T12:43:27.900Z,84.99
2018-11-03T12:44:27.873Z,84.06
2018-11-03T12:45:27.916Z,84.78
2018-11-03T12:46:27.851Z,84.47
2018-11-03T12:47:27.846Z,84.58
2018-11-03T12:48:27.917Z,84.06
2018-11-03T12:49:27.898Z,83.86
2018-11-03T12:50:27.811Z,83.96
2018-11-03T12:51:27.812Z,83.86
2018-11-03T12:52:27.841Z,84.88